Portada
METAR-TAF:

METAR-TAF

Aeroports :

Brunei, Brunei

latitud: 04-56N, longitud: 114-56E, altitud: 22 m

Observació

L'informe es va fer fa 15 minuts, a les 12:30 UTC
Vent 1 kt del Est
Temperatura 28°C
Humitat 84%
Pressió 1008 hPa
Visibilitat 10 km o més
Escasses núvols a una alçada de 1500 ft
Núvols disperses a una alçada de 14000 ft
Cel ennuvolat a una alçada de 28000 ft

METAR: WBSB 161230Z 09001KT 9999 FEW015 SCT140 BKN280 28/25 Q1008 NOSIG

Hora: 20:45 (12:45 UTC)

Pronòstic

L'informe es va fer fa 1 hora i 45 minuts, a les 11:00 UTC
Pronòstic vàlid del 16 a les 12 UTC al 17 a les 18 UTC
Vent 5 kt del Oest/Sud-Oest
Visibilitat 10 km o més
Escasses núvols a una alçada de 1500 ft
Escasses núvols a una alçada de 1600 ft, Cumulonimbus.
Evolucionant progressivament
l' 16 a les 18 UTC al 16 a les 20 UTC
Vent 3 kt del Sud/Sud-Oest
Escasses núvols a una alçada de 1400 ft

TAF: WBSB 161100Z 1612/1718 24005KT 9999 FEW015 FEW016CB BECMG 1618/1620 20003KT FEW014

Observacions i pronòstics meteorològics de més de 4000 aeroports (METAR i TAF).

Les estacions disponibles són els punts grocs i vermells al mapa.

Posi el ratolí al punt desitjat per veure el nom de l'estació.

Feu clic per veure les observacions i els pronòstics meteorològics.

Per canviar el mapa: feu clic els botons verds amb una creu de color negre per apropar; al botó verd amb un guió per allunyar la imatge; o en les fletxes verdes per a mapes adjacents.


METAR-TAF: